KUGN/UGN METAR and TAF weather

Enter ICAO airport designator
Station Type Date Time Source
KUGN METAR 2021/09/20 05:55 UTC NOAA

KUGN 200555Z AUTO 19010KT 10SM CLR 25/18 A2999 RMK AO2 SLP140 T02500178 10256 20233 402670139 58002


Station Type Date Time Source
KUGN Decoded METAR 2021/09/20 05:55 UTC NOAA

CHICAGO/WAUKEGAN REGIONAL, IL, United States (KUGN) 42-25N 087-52W
Sep 20, 2021 - 01:55 AM EDT / 2021.09.20 0555 UTC
Wind: from the S (190 degrees) at 12 MPH (10 KT):0
Visibility: 10 mile(s):0
Sky conditions: clear
Temperature: 77.0 F (25.0 C)
Dew Point: 64.0 F (17.8 C)
Relative Humidity: 64%
Pressure (altimeter): 29.99 in. Hg (1015 hPa)
Pressure tendency: 0.01 inches (0.2 hPa) lower than three hours ago
ob: KUGN 200555Z AUTO 19010KT 10SM CLR 25/18 A2999 RMK AO2 SLP140 T02500178 10256 20233 402670139 58002
cycle: 6

Station Type Date Time Source
KUGN TAF UTC NOAA

Error!

Example: see airport list